Amunt
Inicio > meteoXarxa
Fes-te'n soci

METEOXARXA

Xert
Ubicació Pla de la Font
Comarca el Baix Maestrat
Altitud (msnm) 450
Posició geogràfica 40° 31' 16.32" N, 00° 9' 32.40" E
Model Davis Vantage Vue
Presa de dades
Font de les dades Hilario Domenech
Estadístiques. Resum
Data Temperatura (ºC) Humitat (%) Pressió (hPa) Vent (km/h) Precipit. (mm)
Mínima Mitjana Màxima Mínima Mitjana Màxima Mínima Mitjana Màxima Predom. Mitjana Ràfega màxima Total Dies de pluja
Mínima Mitjana Màxima Mínima Mitjana Màxima
Últimes dades diàries
25-03-2017 2,6     9,2     14,7 WNW 5,0 40,2 0,0  
24-03-2017 4,1     7,8     10,8 ENE 4,5 24,1 0,0  
23-03-2017 3,9     8,3     13,8 NW 6,9 41,8 0,2  
22-03-2017 6,2     11,4     14,8 WNW 5,1 38,6 0,0  
21-03-2017 7,3     12,7     17,0 58,0 70,4 86,0 1.013,0 1.014,2 1.016,0 S 4,0 24,0 0,0  
20-03-2017 7,2     13,5     19,7 42,0 62,2 83,0 1.013,5 1.014,7 1.016,2 SSO 3,7 23,0 0,0  
19-03-2017 6,6     13,5     20,6 32,0 52,5 74,0 1.015,4 1.017,9 1.021,1 SSO 3,5 23,0 0,0  
18-03-2017 4,1     12,6     21,0 21,0 47,4 76,0 1.019,5 1.021,4 1.023,1 SO 3,5 23,0 0,0  
17-03-2017 4,1     10,9     19,9 25,0 56,9 81,0 1.022,1 1.023,3 1.024,6 OSO 3,2 24,0 0,0  
16-03-2017 4,6     11,0     18,5 20,0 64,3 93,0 1.023,1 1.024,8 1.026,6 SO 3,0 23,0 0,0  
15-03-2017 5,6     11,0     17,7 49,0 73,8 91,0 1.025,6 1.027,6 1.029,6 S 3,3 24,0 0,0  
14-03-2017 8,0     12,9     18,4 50,0 70,4 88,0 1.027,5 1.028,9 1.030,6 SE 5,3 34,0 0,0  
13-03-2017 5,4     9,2     12,0 68,0 79,6 95,0 1.014,4 1.020,4 1.028,2 SE 14,5 61,0 9,6  
12-03-2017 6,2     13,9     19,7 35,0 63,3 95,0 1.012,6 1.014,8 1.016,6 SO 13,1 69,0 10,6  
11-03-2017 8,2     14,4     21,6 43,0 66,4 88,0 1.015,5 1.017,3 1.019,4 SO 3,4 21,0 0,0  
10-03-2017 11,1     18,0     25,5 19,0 49,9 78,0 1.018,1 1.019,9 1.022,3 SSO 4,8 29,0 0,0  
09-03-2017 9,7     19,2     28,1 19,0 39,2 61,0 1.022,6 1.024,7 1.027,2 SO 5,6 29,0 0,0  
08-03-2017 11,0     15,1     21,6 35,0 62,1 81,0 1.021,2 1.024,6 1.027,0 SSO 13,2 69,0 0,0  
07-03-2017 11,7     15,4     19,7 30,0 43,1 60,0 1.019,6 1.021,2 1.022,5 SSO 16,1 74,0 0,0  
06-03-2017 8,1     14,6     20,4 36,0 59,1 87,0 1.017,0 1.019,4 1.022,5 OSO 11,0 79,0 0,0  
05-03-2017 5,8     12,0     18,4 44,0 57,6 81,0 1.013,1 1.016,8 1.020,4 OSO 6,2 39,0 0,0  
04-03-2017 3,6     8,6     14,3 31,0 54,8 95,0 995,1 1.005,0 1.013,5 OSO 11,6 82,0 0,4  
03-03-2017 3,1     8,2     12,4 71,0 87,1 97,0 995,1 1.009,0 1.017,9 SO 6,2 72,0 15,8  
02-03-2017 6,0     11,5     17,1 55,0 73,6 91,0 1.017,9 1.019,3 1.020,9 SO 3,5 24,0 0,0  
01-03-2017 5,9     10,8     16,3 44,0 69,1 92,0 1.017,4 1.019,5 1.021,0 SSO 6,1 45,0 0,0  
28-02-2017 6,6     11,4     16,7 44,0 61,4 75,0 1.010,0 1.012,4 1.018,0 O 5,4 40,0 0,0  
27-02-2017 4,1     9,3     16,9 50,0 82,5 98,0 1.012,7 1.015,3 1.018,9 OSO 3,6 29,0 0,2  
26-02-2017 3,2     9,3     15,2 61,0 84,4 96,0 1.018,9 1.021,2 1.023,0 SO 3,3 21,0 0,0  
25-02-2017 4,2     9,4     14,8 37,0 62,9 88,0 1.017,4 1.019,9 1.022,8 SSO 6,2 45,0 0,0  
24-02-2017 7,9     10,8     13,8 51,0 69,1 92,0 1.011,0 1.013,7 1.017,3 S 13,9 61,0 3,4  
23-02-2017 8,8     13,1     18,9 46,0 62,7 83,0 1.013,4 1.016,2 1.020,8 SO 2,3 29,0 0,0  
22-02-2017 3,8     10,5     19,1 25,0 55,2 81,0 1.020,9 1.022,9 1.024,8 O 3,0 21,0 0,0  
Dades del mes en curs (actualitzades fins l'últim dia disponible)
03/2017 2,6 6,4 11,7 12,2 10,8 18,2 28,1 19,0 62,0 97,0 995,1 1.019,3 1.030,6   6,7 82,0 36,6  
Últimes dades mensuals
02/2017 1,6 5,2 9,3 9,5 9,6 14,8 19,1 54,6 71,9 93,6 1.010,7 1.018,1 1.027,1 7,7 148,0 23,4 11
01/2017 -1,5 3,7 8,3 7,5 5,6 11,8 19,4 39,4 65,7 97,7 1.013,0 1.021,2 1.030,6 10,2 109,0 124,2 9
12/2016 0,1 5,5 10,9 9,0 8,4 14,0 17,8 55,6 80,3 96,3 1.016,5 1.027,9 1.037,0 5,4 69,0 105,6 12
11/2016 3,0 7,8 11,8 11,6 10,3 16,0 23,3 6,1 91,7 81,0 10
10/2016 7,9 11,9 15,7 16,3 14,3 21,3 26,2 3,2 41,8 19,0 7
09/2016 10,3 15,4 24,2 20,7 19,3 26,5 37,9 5,6 69,2 38,6 7
08/2016 13,3 16,8 19,7 22,8 23,7 28,8 32,3 5,4 64,4 15,4 4
07/2016 13,3 17,1 19,7 23,5 25,7 29,5 33,8 5,9 57,9 3,8 2
06/2016 11,2 14,7 18,7 20,6 22,0 26,5 32,6 6,2 70,8 21,6 7
05/2016 6,7 11,1 16,3 15,8 12,9 21,0 26,1 7,5 95,0 62,2 8
04/2016 3,5 8,1 11,6 13,0 11,6 17,8 22,9 7,7 104,6 57,0 10
03/2016 2,5 6,4 10,7 10,3 7,9 15,0 22,9 10,7 125,5 57,2 8
02/2016 -0,7 5,8 13,0 10,3 8,9 15,7 21,9 11,1 112,7 36,0 7
Dades de l'any en curs (actualitzades fins l'últim dia disponible)
2017 -1,5 5,0 11,7 9,6 5,6 14,7 28,1 17,0 66,4 98,0 995,1 1.019,6 1.032,0   8,3 148,0 184,2  
Últimes dades anuals
2012 108,0 441,0
2013 -1,6 12,4 13,9 17,4 18,8 23,0 32,3 70,9 70,9 70,9 1.022,9 1.022,9 1.022,9 6,6 137,0 677,2 45
2014 -0,5 11,0 14,6 15,8 20,0 21,0 33,6 6,9 144,8 726,6 99
2015 -1,6 10,9 17,4 15,8 18,9 21,3 35,8 6,8 151,3 761,6 84
2016 -0,7 10,5 24,2 15,3 7,9 20,6 37,9 80,3 80,3 80,3 1.027,9 1.027,9 1.027,9 6,8 125,5 504,8 85